sensor_id;sensor_type;location;lat;lon;timestamp;temperature;humidity
42949;DHT22;28587;46.794;23.594;2022-10-30T00:04:51;23.90;56.50
42949;DHT22;28587;46.794;23.594;2022-10-30T00:09:52;23.90;56.50
42949;DHT22;28587;46.794;23.594;2022-10-30T00:14:53;23.90;56.50
42949;DHT22;28587;46.794;23.594;2022-10-30T00:19:54;23.90;56.50
42949;DHT22;28587;46.794;23.594;2022-10-30T00:24:55;23.90;56.60
42949;DHT22;28587;46.794;23.594;2022-10-30T00:29:56;23.90;56.40
42949;DHT22;28587;46.794;23.594;2022-10-30T00:34:57;23.90;56.40
42949;DHT22;28587;46.794;23.594;2022-10-30T00:39:57;23.90;56.50
42949;DHT22;28587;46.794;23.594;2022-10-30T00:44:58;23.90;56.50
42949;DHT22;28587;46.794;23.594;2022-10-30T00:55:33;23.90;56.50
42949;DHT22;28587;46.794;23.594;2022-10-30T01:00:37;23.90;56.40
42949;DHT22;28587;46.794;23.594;2022-10-30T01:05:42;23.90;56.50
42949;DHT22;28587;46.794;23.594;2022-10-30T01:10:47;23.90;56.50
42949;DHT22;28587;46.794;23.594;2022-10-30T01:26:48;23.90;56.40
42949;DHT22;28587;46.794;23.594;2022-10-30T01:37:31;23.80;56.30
42949;DHT22;28587;46.794;23.594;2022-10-30T01:42:52;23.80;56.40
42949;DHT22;28587;46.794;23.594;2022-10-30T02:03:42;23.90;56.40
42949;DHT22;28587;46.794;23.594;2022-10-30T02:08:43;23.90;56.50
42949;DHT22;28587;46.794;23.594;2022-10-30T02:13:45;23.80;56.50
42949;DHT22;28587;46.794;23.594;2022-10-30T02:18:46;23.80;56.60
42949;DHT22;28587;46.794;23.594;2022-10-30T02:23:46;23.80;56.50
42949;DHT22;28587;46.794;23.594;2022-10-30T02:28:48;23.90;56.50
42949;DHT22;28587;46.794;23.594;2022-10-30T02:33:51;23.90;56.60
42949;DHT22;28587;46.794;23.594;2022-10-30T02:38:53;23.90;56.50
42949;DHT22;28587;46.794;23.594;2022-10-30T02:43:55;23.90;56.50
42949;DHT22;28587;46.794;23.594;2022-10-30T02:48:56;23.90;56.50
42949;DHT22;28587;46.794;23.594;2022-10-30T02:54:00;23.90;56.40
42949;DHT22;28587;46.794;23.594;2022-10-30T02:59:02;23.90;56.50
42949;DHT22;28587;46.794;23.594;2022-10-30T03:04:03;23.90;56.50
42949;DHT22;28587;46.794;23.594;2022-10-30T03:09:04;23.90;56.50
42949;DHT22;28587;46.794;23.594;2022-10-30T03:14:05;23.80;56.50
42949;DHT22;28587;46.794;23.594;2022-10-30T03:19:06;23.80;56.50
42949;DHT22;28587;46.794;23.594;2022-10-30T03:24:07;23.80;56.50
42949;DHT22;28587;46.794;23.594;2022-10-30T03:29:08;23.80;56.50
42949;DHT22;28587;46.794;23.594;2022-10-30T03:34:10;23.80;56.50
42949;DHT22;28587;46.794;23.594;2022-10-30T03:39:11;23.80;56.50
42949;DHT22;28587;46.794;23.594;2022-10-30T03:44:12;23.80;56.50
42949;DHT22;28587;46.794;23.594;2022-10-30T03:49:13;23.90;56.50
42949;DHT22;28587;46.794;23.594;2022-10-30T03:54:14;23.80;56.40
42949;DHT22;28587;46.794;23.594;2022-10-30T03:59:15;23.80;56.40
42949;DHT22;28587;46.794;23.594;2022-10-30T04:04:24;23.90;56.40
42949;DHT22;28587;46.794;23.594;2022-10-30T04:09:25;23.90;56.50
42949;DHT22;28587;46.794;23.594;2022-10-30T04:14:28;23.80;56.50
42949;DHT22;28587;46.794;23.594;2022-10-30T04:19:28;23.80;56.50
42949;DHT22;28587;46.794;23.594;2022-10-30T04:24:29;23.80;56.50
42949;DHT22;28587;46.794;23.594;2022-10-30T04:29:32;23.80;56.50
42949;DHT22;28587;46.794;23.594;2022-10-30T04:34:32;23.80;56.60
42949;DHT22;28587;46.794;23.594;2022-10-30T04:39:34;23.80;56.60
42949;DHT22;28587;46.794;23.594;2022-10-30T04:44:45;23.80;56.70
42949;DHT22;28587;46.794;23.594;2022-10-30T04:49:47;23.80;56.60
42949;DHT22;28587;46.794;23.594;2022-10-30T04:54:48;23.80;56.60
42949;DHT22;28587;46.794;23.594;2022-10-30T04:59:49;23.80;56.60
42949;DHT22;28587;46.794;23.594;2022-10-30T05:04:51;23.80;56.50
42949;DHT22;28587;46.794;23.594;2022-10-30T05:09:52;23.80;56.60
42949;DHT22;28587;46.794;23.594;2022-10-30T05:14:55;23.80;56.70
42949;DHT22;28587;46.794;23.594;2022-10-30T05:19:57;23.80;56.60
42949;DHT22;28587;46.794;23.594;2022-10-30T05:24:58;23.80;56.70
42949;DHT22;28587;46.794;23.594;2022-10-30T05:29:58;23.80;56.80
42949;DHT22;28587;46.794;23.594;2022-10-30T05:35:00;23.80;57.00
42949;DHT22;28587;46.794;23.594;2022-10-30T05:40:02;23.80;57.00
42949;DHT22;28587;46.794;23.594;2022-10-30T05:45:05;23.80;56.80
42949;DHT22;28587;46.794;23.594;2022-10-30T05:50:10;23.80;56.90
42949;DHT22;28587;46.794;23.594;2022-10-30T05:55:28;23.80;57.10
42949;DHT22;28587;46.794;23.594;2022-10-30T06:00:42;23.90;57.40
42949;DHT22;28587;46.794;23.594;2022-10-30T06:05:47;23.90;57.50
42949;DHT22;28587;46.794;23.594;2022-10-30T06:10:48;23.90;57.30
42949;DHT22;28587;46.794;23.594;2022-10-30T06:16:10;23.90;57.20
42949;DHT22;28587;46.794;23.594;2022-10-30T06:21:30;24.00;57.80
42949;DHT22;28587;46.794;23.594;2022-10-30T06:26:48;24.00;57.50
42949;DHT22;28587;46.794;23.594;2022-10-30T06:31:50;24.00;57.50
42949;DHT22;28587;46.794;23.594;2022-10-30T06:36:51;24.10;57.30
42949;DHT22;28587;46.794;23.594;2022-10-30T06:41:52;24.00;57.60
42949;DHT22;28587;46.794;23.594;2022-10-30T06:47:18;24.10;57.40
42949;DHT22;28587;46.794;23.594;2022-10-30T06:52:19;24.10;57.60
42949;DHT22;28587;46.794;23.594;2022-10-30T06:57:23;24.10;57.30
42949;DHT22;28587;46.794;23.594;2022-10-30T07:02:58;24.10;57.20
42949;DHT22;28587;46.794;23.594;2022-10-30T07:07:59;24.10;57.30
42949;DHT22;28587;46.794;23.594;2022-10-30T07:13:00;24.10;57.40
42949;DHT22;28587;46.794;23.594;2022-10-30T07:18:17;24.10;57.00
42949;DHT22;28587;46.794;23.594;2022-10-30T07:23:18;24.10;57.50
42949;DHT22;28587;46.794;23.594;2022-10-30T07:28:19;24.10;57.30
42949;DHT22;28587;46.794;23.594;2022-10-30T07:33:49;24.10;57.30
42949;DHT22;28587;46.794;23.594;2022-10-30T07:39:09;24.20;56.50
42949;DHT22;28587;46.794;23.594;2022-10-30T07:44:25;24.20;57.30
42949;DHT22;28587;46.794;23.594;2022-10-30T07:49:44;24.20;57.30
42949;DHT22;28587;46.794;23.594;2022-10-30T07:54:47;24.10;57.80
42949;DHT22;28587;46.794;23.594;2022-10-30T08:00:10;24.20;57.90
42949;DHT22;28587;46.794;23.594;2022-10-30T08:05:14;24.20;57.60
42949;DHT22;28587;46.794;23.594;2022-10-30T08:10:34;24.20;57.40
42949;DHT22;28587;46.794;23.594;2022-10-30T08:15:36;24.20;57.60
42949;DHT22;28587;46.794;23.594;2022-10-30T08:20:39;24.20;57.70
42949;DHT22;28587;46.794;23.594;2022-10-30T08:25:40;24.20;58.80
42949;DHT22;28587;46.794;23.594;2022-10-30T08:30:42;24.30;59.60
42949;DHT22;28587;46.794;23.594;2022-10-30T08:35:49;24.30;60.30
42949;DHT22;28587;46.794;23.594;2022-10-30T08:40:51;24.30;62.50
42949;DHT22;28587;46.794;23.594;2022-10-30T08:45:52;24.30;64.30
42949;DHT22;28587;46.794;23.594;2022-10-30T08:50:58;24.40;60.60
42949;DHT22;28587;46.794;23.594;2022-10-30T08:56:06;24.40;61.20
42949;DHT22;28587;46.794;23.594;2022-10-30T09:01:40;24.40;60.60
42949;DHT22;28587;46.794;23.594;2022-10-30T09:06:53;24.30;60.90
42949;DHT22;28587;46.794;23.594;2022-10-30T09:12:24;24.30;60.60
42949;DHT22;28587;46.794;23.594;2022-10-30T09:17:25;24.30;60.80
42949;DHT22;28587;46.794;23.594;2022-10-30T09:22:26;24.30;61.40
42949;DHT22;28587;46.794;23.594;2022-10-30T09:27:27;24.30;59.80
42949;DHT22;28587;46.794;23.594;2022-10-30T09:32:31;24.30;55.80
42949;DHT22;28587;46.794;23.594;2022-10-30T09:37:44;24.20;53.30
42949;DHT22;28587;46.794;23.594;2022-10-30T09:42:48;24.20;53.60
42949;DHT22;28587;46.794;23.594;2022-10-30T09:53:29;24.10;54.90
42949;DHT22;28587;46.794;23.594;2022-10-30T09:59:05;24.10;55.50
42949;DHT22;28587;46.794;23.594;2022-10-30T10:09:47;24.20;55.70
42949;DHT22;28587;46.794;23.594;2022-10-30T10:15:03;24.20;56.00
42949;DHT22;28587;46.794;23.594;2022-10-30T10:20:32;24.10;56.00
42949;DHT22;28587;46.794;23.594;2022-10-30T10:25:32;24.10;56.10
42949;DHT22;28587;46.794;23.594;2022-10-30T10:30:47;24.20;56.00
42949;DHT22;28587;46.794;23.594;2022-10-30T10:36:22;24.20;56.20
42949;DHT22;28587;46.794;23.594;2022-10-30T10:52:02;24.20;55.60
42949;DHT22;28587;46.794;23.594;2022-10-30T10:57:05;24.20;54.40
42949;DHT22;28587;46.794;23.594;2022-10-30T11:07:21;24.10;52.20
42949;DHT22;28587;46.794;23.594;2022-10-30T11:12:29;24.10;52.80
42949;DHT22;28587;46.794;23.594;2022-10-30T11:17:39;24.10;52.10
42949;DHT22;28587;46.794;23.594;2022-10-30T11:22:45;24.10;51.90
42949;DHT22;28587;46.794;23.594;2022-10-30T11:27:54;24.10;52.10
42949;DHT22;28587;46.794;23.594;2022-10-30T11:32:56;24.00;52.30
42949;DHT22;28587;46.794;23.594;2022-10-30T11:38:12;24.00;52.30
42949;DHT22;28587;46.794;23.594;2022-10-30T11:43:20;24.00;52.70
42949;DHT22;28587;46.794;23.594;2022-10-30T11:48:26;24.00;52.50
42949;DHT22;28587;46.794;23.594;2022-10-30T11:53:35;23.90;52.40
42949;DHT22;28587;46.794;23.594;2022-10-30T11:58:45;23.90;52.30
42949;DHT22;28587;46.794;23.594;2022-10-30T12:03:48;23.90;51.80
42949;DHT22;28587;46.794;23.594;2022-10-30T12:09:12;23.90;51.50
42949;DHT22;28587;46.794;23.594;2022-10-30T12:14:21;23.90;51.40
42949;DHT22;28587;46.794;23.594;2022-10-30T12:19:23;23.90;52.00
42949;DHT22;28587;46.794;23.594;2022-10-30T12:24:31;23.90;52.20
42949;DHT22;28587;46.794;23.594;2022-10-30T12:29:44;23.90;53.20
42949;DHT22;28587;46.794;23.594;2022-10-30T12:35:02;23.90;53.30
42949;DHT22;28587;46.794;23.594;2022-10-30T12:40:12;23.90;52.60
42949;DHT22;28587;46.794;23.594;2022-10-30T12:45:20;24.00;52.40
42949;DHT22;28587;46.794;23.594;2022-10-30T12:50:35;23.90;52.40
42949;DHT22;28587;46.794;23.594;2022-10-30T12:55:49;23.90;51.70
42949;DHT22;28587;46.794;23.594;2022-10-30T13:00:53;24.00;51.90
42949;DHT22;28587;46.794;23.594;2022-10-30T13:06:21;24.00;52.00
42949;DHT22;28587;46.794;23.594;2022-10-30T13:16:50;24.00;51.40
42949;DHT22;28587;46.794;23.594;2022-10-30T13:21:58;24.00;51.50
42949;DHT22;28587;46.794;23.594;2022-10-30T13:27:23;23.90;51.50
42949;DHT22;28587;46.794;23.594;2022-10-30T13:53:42;24.00;53.50
42949;DHT22;28587;46.794;23.594;2022-10-30T13:59:07;24.00;53.70
42949;DHT22;28587;46.794;23.594;2022-10-30T14:04:37;24.10;54.00
42949;DHT22;28587;46.794;23.594;2022-10-30T14:14:49;24.10;53.90
42949;DHT22;28587;46.794;23.594;2022-10-30T14:25:15;24.10;54.00
42949;DHT22;28587;46.794;23.594;2022-10-30T14:30:19;24.10;54.00
42949;DHT22;28587;46.794;23.594;2022-10-30T14:35:28;24.00;53.90
42949;DHT22;28587;46.794;23.594;2022-10-30T14:40:39;24.10;53.80
42949;DHT22;28587;46.794;23.594;2022-10-30T14:45:46;24.00;53.80
42949;DHT22;28587;46.794;23.594;2022-10-30T14:51:11;24.00;53.80
42949;DHT22;28587;46.794;23.594;2022-10-30T14:56:18;24.00;53.60
42949;DHT22;28587;46.794;23.594;2022-10-30T15:12:43;24.00;53.10
42949;DHT22;28587;46.794;23.594;2022-10-30T15:17:54;23.90;53.00
42949;DHT22;28587;46.794;23.594;2022-10-30T15:23:08;23.90;53.10
42949;DHT22;28587;46.794;23.594;2022-10-30T15:28:18;23.90;53.10
42949;DHT22;28587;46.794;23.594;2022-10-30T15:33:21;23.90;53.20
42949;DHT22;28587;46.794;23.594;2022-10-30T15:38:22;23.90;53.50
42949;DHT22;28587;46.794;23.594;2022-10-30T15:43:27;23.90;53.50
42949;DHT22;28587;46.794;23.594;2022-10-30T15:48:32;24.00;53.80
42949;DHT22;28587;46.794;23.594;2022-10-30T15:53:45;24.00;54.10
42949;DHT22;28587;46.794;23.594;2022-10-30T15:59:02;24.00;54.00
42949;DHT22;28587;46.794;23.594;2022-10-30T16:04:03;24.00;54.10
42949;DHT22;28587;46.794;23.594;2022-10-30T16:09:13;24.00;54.30
42949;DHT22;28587;46.794;23.594;2022-10-30T16:14:21;24.00;54.40
42949;DHT22;28587;46.794;23.594;2022-10-30T16:19:28;24.00;54.50
42949;DHT22;28587;46.794;23.594;2022-10-30T16:24:32;24.10;54.40
42949;DHT22;28587;46.794;23.594;2022-10-30T16:29:34;24.00;54.40
42949;DHT22;28587;46.794;23.594;2022-10-30T16:34:36;24.00;54.50
42949;DHT22;28587;46.794;23.594;2022-10-30T16:39:38;24.10;54.40
42949;DHT22;28587;46.794;23.594;2022-10-30T16:44:40;24.10;54.70
42949;DHT22;28587;46.794;23.594;2022-10-30T16:49:46;24.10;54.70
42949;DHT22;28587;46.794;23.594;2022-10-30T16:55:06;24.20;54.80
42949;DHT22;28587;46.794;23.594;2022-10-30T17:00:19;24.40;54.40
42949;DHT22;28587;46.794;23.594;2022-10-30T17:05:34;24.90;53.70
42949;DHT22;28587;46.794;23.594;2022-10-30T17:10:41;25.30;52.90
42949;DHT22;28587;46.794;23.594;2022-10-30T17:15:42;25.70;52.40
42949;DHT22;28587;46.794;23.594;2022-10-30T17:20:43;25.90;51.90
42949;DHT22;28587;46.794;23.594;2022-10-30T17:25:44;25.90;51.80
42949;DHT22;28587;46.794;23.594;2022-10-30T17:30:45;25.90;52.40
42949;DHT22;28587;46.794;23.594;2022-10-30T17:35:47;25.80;52.70
42949;DHT22;28587;46.794;23.594;2022-10-30T17:40:48;25.70;53.40
42949;DHT22;28587;46.794;23.594;2022-10-30T17:45:49;25.60;53.60
42949;DHT22;28587;46.794;23.594;2022-10-30T17:50:51;25.50;53.80
42949;DHT22;28587;46.794;23.594;2022-10-30T17:56:04;25.40;53.90
42949;DHT22;28587;46.794;23.594;2022-10-30T18:01:07;25.30;53.90
42949;DHT22;28587;46.794;23.594;2022-10-30T18:06:15;25.10;53.80
42949;DHT22;28587;46.794;23.594;2022-10-30T18:11:19;25.10;54.00
42949;DHT22;28587;46.794;23.594;2022-10-30T18:16:20;24.90;54.00
42949;DHT22;28587;46.794;23.594;2022-10-30T18:21:23;24.90;54.00
42949;DHT22;28587;46.794;23.594;2022-10-30T18:26:27;24.90;54.00
42949;DHT22;28587;46.794;23.594;2022-10-30T18:31:28;24.80;53.90
42949;DHT22;28587;46.794;23.594;2022-10-30T18:36:29;24.80;53.90
42949;DHT22;28587;46.794;23.594;2022-10-30T18:41:36;24.80;54.10
42949;DHT22;28587;46.794;23.594;2022-10-30T18:46:37;24.80;54.20
42949;DHT22;28587;46.794;23.594;2022-10-30T18:51:38;24.70;58.40
42949;DHT22;28587;46.794;23.594;2022-10-30T18:56:39;24.80;70.10
42949;DHT22;28587;46.794;23.594;2022-10-30T19:01:40;24.80;74.50
42949;DHT22;28587;46.794;23.594;2022-10-30T19:06:41;24.80;78.40
42949;DHT22;28587;46.794;23.594;2022-10-30T19:11:42;24.80;81.20
42949;DHT22;28587;46.794;23.594;2022-10-30T19:16:43;24.80;76.60
42949;DHT22;28587;46.794;23.594;2022-10-30T19:21:44;24.80;79.00
42949;DHT22;28587;46.794;23.594;2022-10-30T19:26:45;24.80;77.00
42949;DHT22;28587;46.794;23.594;2022-10-30T19:31:46;24.80;75.40
42949;DHT22;28587;46.794;23.594;2022-10-30T19:36:47;24.80;75.10
42949;DHT22;28587;46.794;23.594;2022-10-30T19:41:48;24.80;73.20
42949;DHT22;28587;46.794;23.594;2022-10-30T19:46:49;24.90;70.30
42949;DHT22;28587;46.794;23.594;2022-10-30T19:51:50;24.90;65.50
42949;DHT22;28587;46.794;23.594;2022-10-30T19:56:51;24.80;64.40
42949;DHT22;28587;46.794;23.594;2022-10-30T20:01:52;24.80;66.50
42949;DHT22;28587;46.794;23.594;2022-10-30T20:06:53;24.80;62.40
42949;DHT22;28587;46.794;23.594;2022-10-30T20:11:54;24.80;61.50
42949;DHT22;28587;46.794;23.594;2022-10-30T20:16:55;24.70;60.40
42949;DHT22;28587;46.794;23.594;2022-10-30T20:21:56;24.70;59.00
42949;DHT22;28587;46.794;23.594;2022-10-30T20:26:57;24.70;57.50
42949;DHT22;28587;46.794;23.594;2022-10-30T20:31:58;24.60;58.00
42949;DHT22;28587;46.794;23.594;2022-10-30T20:36:58;24.60;58.70
42949;DHT22;28587;46.794;23.594;2022-10-30T20:41:59;24.60;59.10
42949;DHT22;28587;46.794;23.594;2022-10-30T20:47:01;24.60;58.90
42949;DHT22;28587;46.794;23.594;2022-10-30T20:52:01;24.60;58.80
42949;DHT22;28587;46.794;23.594;2022-10-30T20:57:02;24.60;58.90
42949;DHT22;28587;46.794;23.594;2022-10-30T21:02:03;24.60;58.90
42949;DHT22;28587;46.794;23.594;2022-10-30T21:07:04;24.60;59.00
42949;DHT22;28587;46.794;23.594;2022-10-30T21:12:05;24.60;59.00
42949;DHT22;28587;46.794;23.594;2022-10-30T21:17:07;24.60;59.00
42949;DHT22;28587;46.794;23.594;2022-10-30T21:22:08;24.60;59.00
42949;DHT22;28587;46.794;23.594;2022-10-30T21:27:09;24.60;58.90
42949;DHT22;28587;46.794;23.594;2022-10-30T21:32:11;24.60;59.00
42949;DHT22;28587;46.794;23.594;2022-10-30T21:37:12;24.60;59.10
42949;DHT22;28587;46.794;23.594;2022-10-30T21:42:12;24.60;59.20
42949;DHT22;28587;46.794;23.594;2022-10-30T21:47:13;24.60;59.20
42949;DHT22;28587;46.794;23.594;2022-10-30T21:52:14;24.60;59.20
42949;DHT22;28587;46.794;23.594;2022-10-30T21:57:15;24.60;59.10
42949;DHT22;28587;46.794;23.594;2022-10-30T22:02:16;24.60;59.10
42949;DHT22;28587;46.794;23.594;2022-10-30T22:07:17;24.60;59.00
42949;DHT22;28587;46.794;23.594;2022-10-30T22:12:18;24.60;59.10
42949;DHT22;28587;46.794;23.594;2022-10-30T22:17:19;24.60;58.90
42949;DHT22;28587;46.794;23.594;2022-10-30T22:22:20;24.50;59.00
42949;DHT22;28587;46.794;23.594;2022-10-30T22:27:21;24.50;58.90
42949;DHT22;28587;46.794;23.594;2022-10-30T22:32:22;24.50;59.00
42949;DHT22;28587;46.794;23.594;2022-10-30T22:37:23;24.50;59.00
42949;DHT22;28587;46.794;23.594;2022-10-30T22:42:24;24.40;59.00
42949;DHT22;28587;46.794;23.594;2022-10-30T22:47:25;24.40;59.00
42949;DHT22;28587;46.794;23.594;2022-10-30T22:52:26;24.40;59.10
42949;DHT22;28587;46.794;23.594;2022-10-30T22:57:27;24.40;59.10
42949;DHT22;28587;46.794;23.594;2022-10-30T23:02:28;24.30;59.00
42949;DHT22;28587;46.794;23.594;2022-10-30T23:07:29;24.30;58.90
42949;DHT22;28587;46.794;23.594;2022-10-30T23:12:30;24.30;58.80
42949;DHT22;28587;46.794;23.594;2022-10-30T23:17:31;24.30;58.80
42949;DHT22;28587;46.794;23.594;2022-10-30T23:22:32;24.30;58.80
42949;DHT22;28587;46.794;23.594;2022-10-30T23:27:33;24.30;58.90
42949;DHT22;28587;46.794;23.594;2022-10-30T23:32:34;24.30;58.80
42949;DHT22;28587;46.794;23.594;2022-10-30T23:37:35;24.30;59.00
42949;DHT22;28587;46.794;23.594;2022-10-30T23:42:36;24.30;58.80
42949;DHT22;28587;46.794;23.594;2022-10-30T23:47:37;24.30;58.90
42949;DHT22;28587;46.794;23.594;2022-10-30T23:52:38;24.20;58.90
42949;DHT22;28587;46.794;23.594;2022-10-30T23:57:39;24.20;58.80
